Terminal Aerodrome Forecast
Issued by NWS

Current Version | Previous Version | Text Only | Print | Product List | Glossary On
Versions: 1 2 3 4 5 6 7 8 9 10 11 12 13 14 15 16 17 18 19 20 21 22 23 24 25 26 27 28 29 30 31 32 33 34 35
566
FTUS44 KOUN 200112 AAB
TAFHBR
TAF AMD
KHBR 200112Z 2001/2024 18007KT P6SM FEW060 BKN080 OVC100
     FM200200 20013KT 6SM -TSRA SCT012 OVC040CB
     FM200700 21013KT P6SM BKN120
     FM201600 29013KT P6SM SCT250=

USA.gov is the U.S. government's official web portal to all federal, state and local government web resources and services.